createdAt,value
2022-09-17T00:01:31.416Z,8.55
2022-09-17T00:04:04.817Z,7.70
2022-09-17T00:06:35.318Z,7.90
2022-09-17T00:09:03.284Z,6.32
2022-09-17T00:11:35.517Z,5.40
2022-09-17T00:14:06.057Z,10.18
2022-09-17T00:16:38.071Z,4.38
2022-09-17T00:19:07.151Z,5.43
2022-09-17T00:21:34.914Z,7.20
2022-09-17T00:24:06.350Z,7.75
2022-09-17T00:26:36.755Z,8.40
2022-09-17T00:29:06.156Z,9.10
2022-09-17T00:31:34.933Z,9.25
2022-09-17T00:34:04.708Z,4.72
2022-09-17T00:36:35.532Z,8.32
2022-09-17T00:39:04.397Z,9.27
2022-09-17T00:41:34.235Z,4.53
2022-09-17T00:44:43.200Z,7.53
2022-09-17T00:47:19.234Z,3.40
2022-09-17T00:49:48.658Z,4.50
2022-09-17T00:52:19.649Z,7.43
2022-09-17T00:54:53.842Z,8.93
2022-09-17T00:57:22.540Z,11.80
2022-09-17T00:59:52.227Z,10.63
2022-09-17T01:02:21.654Z,7.13
2022-09-17T01:04:50.001Z,7.38
2022-09-17T01:07:32.068Z,5.18
2022-09-17T01:10:07.885Z,5.82
2022-09-17T01:12:51.287Z,7.50
2022-09-17T01:15:30.363Z,12.07
2022-09-17T01:18:12.033Z,8.38
2022-09-17T01:21:08.533Z,12.18
2022-09-17T01:24:20.339Z,6.43
2022-09-17T01:27:14.819Z,11.05
2022-09-17T01:30:00.785Z,6.50
2022-09-17T01:32:37.101Z,8.13
2022-09-17T01:35:12.312Z,6.72
2022-09-17T01:37:50.282Z,8.60
2022-09-17T01:40:25.780Z,4.57
2022-09-17T01:43:00.450Z,7.68
2022-09-17T01:45:35.419Z,9.02
2022-09-17T01:48:12.528Z,10.15
2022-09-17T01:50:44.449Z,6.35
2022-09-17T01:53:14.730Z,12.80
2022-09-17T01:55:47.176Z,9.68
2022-09-17T01:58:20.824Z,8.15
2022-09-17T02:00:56.026Z,6.50
2022-09-17T02:03:31.046Z,7.30
2022-09-17T02:06:03.233Z,4.78
2022-09-17T02:08:37.573Z,6.43
2022-09-17T02:11:09.998Z,7.68
2022-09-17T02:13:43.669Z,6.75
2022-09-17T02:16:14.891Z,8.60
2022-09-17T02:18:51.162Z,10.95
2022-09-17T02:21:25.719Z,8.15
2022-09-17T02:24:04.398Z,9.67
2022-09-17T02:26:33.921Z,10.13
2022-09-17T02:29:07.977Z,6.55
2022-09-17T02:31:35.829Z,10.38
2022-09-17T02:34:06.690Z,7.50
2022-09-17T02:36:35.626Z,10.57
2022-09-17T02:39:05.611Z,7.55
2022-09-17T02:41:45.378Z,8.30
2022-09-17T02:44:22.932Z,11.48
2022-09-17T02:47:19.518Z,9.65
2022-09-17T02:50:16.966Z,12.48
2022-09-17T02:52:59.479Z,10.63
2022-09-17T02:55:33.955Z,7.32
2022-09-17T02:58:13.097Z,6.17
2022-09-17T03:00:41.604Z,5.75
2022-09-17T03:03:16.090Z,4.97
2022-09-17T03:05:45.628Z,9.95
2022-09-17T03:08:16.002Z,10.27
2022-09-17T03:10:43.714Z,9.32
2022-09-17T03:13:11.491Z,11.43
2022-09-17T03:15:39.666Z,8.00
2022-09-17T03:18:07.428Z,8.50
2022-09-17T03:20:35.670Z,9.75
2022-09-17T03:23:04.905Z,9.52
2022-09-17T03:25:32.649Z,12.55
2022-09-17T03:28:00.824Z,15.43
2022-09-17T03:30:28.616Z,8.88
2022-09-17T03:32:56.753Z,8.30
2022-09-17T03:35:25.167Z,10.13
2022-09-17T03:37:52.872Z,9.48
2022-09-17T03:40:22.461Z,10.95
2022-09-17T03:42:50.209Z,11.18
2022-09-17T03:45:18.421Z,6.22
2022-09-17T03:47:46.145Z,11.55
2022-09-17T03:50:13.934Z,8.35
2022-09-17T03:52:42.118Z,6.80
2022-09-17T03:55:11.047Z,8.70
2022-09-17T03:57:40.692Z,6.70
2022-09-17T04:00:09.360Z,6.13
2022-09-17T04:02:37.243Z,6.07
2022-09-17T04:05:06.352Z,8.55
2022-09-17T04:07:34.109Z,8.27
2022-09-17T04:10:03.018Z,14.35
2022-09-17T04:12:30.716Z,10.48
2022-09-17T04:14:59.838Z,10.75
2022-09-17T04:17:28.702Z,9.57
2022-09-17T04:19:56.410Z,8.23
2022-09-17T04:22:24.233Z,12.23
2022-09-17T04:24:52.424Z,8.60
2022-09-17T04:27:20.645Z,16.83
2022-09-17T04:29:48.377Z,12.00
2022-09-17T04:32:17.483Z,12.15
2022-09-17T04:34:45.628Z,16.85
2022-09-17T04:37:13.359Z,10.75
2022-09-17T04:39:41.101Z,12.68
2022-09-17T04:42:09.890Z,10.00
2022-09-17T04:44:37.614Z,15.07
2022-09-17T04:47:05.660Z,14.25
2022-09-17T04:49:34.776Z,14.02
2022-09-17T04:52:02.914Z,11.80
2022-09-17T04:54:31.198Z,10.00
2022-09-17T04:57:00.705Z,10.18
2022-09-17T04:59:28.934Z,14.00
2022-09-17T05:01:56.707Z,9.07
2022-09-17T05:04:24.791Z,17.10
2022-09-17T05:06:54.770Z,17.00
2022-09-17T05:09:22.511Z,17.65
2022-09-17T05:11:50.249Z,11.32
2022-09-17T05:14:18.465Z,7.80
2022-09-17T05:16:46.866Z,15.80
2022-09-17T05:19:15.063Z,14.02
2022-09-17T05:21:43.044Z,9.60
2022-09-17T05:24:12.350Z,13.18
2022-09-17T05:26:40.904Z,11.65
2022-09-17T05:29:08.760Z,9.15
2022-09-17T05:31:37.166Z,14.00
2022-09-17T05:34:05.243Z,12.52
2022-09-17T05:36:32.957Z,16.33
2022-09-17T05:39:01.866Z,12.65
2022-09-17T05:41:30.964Z,17.52
2022-09-17T05:43:59.173Z,17.52
2022-09-17T05:46:26.989Z,14.15
2022-09-17T05:48:56.768Z,11.07
2022-09-17T05:51:25.205Z,14.80
2022-09-17T05:53:55.346Z,13.75
2022-09-17T05:56:24.464Z,11.15
2022-09-17T05:58:56.678Z,10.52
2022-09-17T06:01:25.048Z,9.10
2022-09-17T06:03:53.783Z,20.90
2022-09-17T06:06:21.622Z,18.08
2022-09-17T06:08:49.838Z,14.23
2022-09-17T06:11:17.576Z,15.23
2022-09-17T06:13:45.945Z,9.48
2022-09-17T06:16:15.839Z,12.35
2022-09-17T06:18:43.578Z,11.27
2022-09-17T06:21:11.841Z,15.15
2022-09-17T06:23:40.007Z,13.90
2022-09-17T06:26:07.861Z,12.50
2022-09-17T06:28:41.215Z,17.50
2022-09-17T06:31:11.029Z,12.27
2022-09-17T06:33:40.996Z,13.45
2022-09-17T06:36:13.624Z,8.07
2022-09-17T06:38:42.875Z,16.48
2022-09-17T06:41:10.657Z,13.77
2022-09-17T06:43:38.522Z,12.20
2022-09-17T06:46:09.474Z,9.98
2022-09-17T06:48:38.379Z,7.97
2022-09-17T06:51:09.446Z,7.43
2022-09-17T06:53:38.114Z,11.68
2022-09-17T06:56:07.361Z,10.20
2022-09-17T06:58:37.391Z,12.27
2022-09-17T07:01:05.890Z,11.00
2022-09-17T07:03:34.608Z,9.27
2022-09-17T07:06:03.080Z,13.10
2022-09-17T07:08:34.411Z,9.32
2022-09-17T07:11:02.349Z,13.00
2022-09-17T07:13:30.313Z,8.95
2022-09-17T07:15:59.844Z,11.48
2022-09-17T07:18:28.288Z,13.95
2022-09-17T07:20:57.136Z,10.50
2022-09-17T07:23:25.542Z,9.50
2022-09-17T07:25:55.451Z,13.55
2022-09-17T07:28:23.955Z,13.40
2022-09-17T07:30:52.482Z,12.75
2022-09-17T07:33:23.370Z,10.68
2022-09-17T07:35:55.022Z,8.10
2022-09-17T07:38:23.365Z,9.85
2022-09-17T07:40:58.885Z,8.57
2022-09-17T07:43:27.463Z,8.88
2022-09-17T07:45:55.758Z,7.05
2022-09-17T07:48:24.197Z,8.70
2022-09-17T07:50:51.924Z,8.80
2022-09-17T07:53:20.091Z,8.25
2022-09-17T07:55:52.960Z,6.10
2022-09-17T07:58:23.009Z,13.93
2022-09-17T08:00:51.069Z,13.50
2022-09-17T08:03:18.832Z,11.13
2022-09-17T08:05:48.352Z,9.63
2022-09-17T08:08:20.908Z,11.60
2022-09-17T08:10:49.087Z,10.50
2022-09-17T08:13:16.823Z,13.13
2022-09-17T08:15:45.991Z,10.18
2022-09-17T08:18:16.663Z,6.75
2022-09-17T08:20:44.378Z,12.13
2022-09-17T08:23:12.685Z,8.40
2022-09-17T08:25:40.401Z,13.45
2022-09-17T08:28:08.260Z,7.10
2022-09-17T08:30:36.386Z,9.20
2022-09-17T08:33:05.482Z,7.57
2022-09-17T08:35:33.620Z,5.68
2022-09-17T08:38:01.712Z,7.90
2022-09-17T08:40:29.798Z,10.32
2022-09-17T08:43:02.461Z,5.28
2022-09-17T08:45:31.390Z,6.82
2022-09-17T08:48:05.067Z,7.38
2022-09-17T08:50:39.479Z,8.25
2022-09-17T08:53:29.296Z,8.25
2022-09-17T08:56:02.792Z,9.50
2022-09-17T08:58:42.254Z,10.65
2022-09-17T09:01:34.390Z,11.60
2022-09-17T09:04:33.577Z,6.93
2022-09-17T09:07:08.045Z,12.27
2022-09-17T09:09:39.084Z,7.27
2022-09-17T09:12:12.031Z,11.85
2022-09-17T09:14:47.514Z,7.18
2022-09-17T09:19:47.709Z,9.13
2022-09-17T09:22:33.356Z,9.35
2022-09-17T09:25:09.426Z,12.02
2022-09-17T09:27:45.077Z,6.20
2022-09-17T09:30:14.952Z,7.03
2022-09-17T09:32:54.658Z,7.30
2022-09-17T09:35:24.820Z,5.80
2022-09-17T09:38:00.571Z,11.27
2022-09-17T09:40:37.091Z,4.90
2022-09-17T09:43:15.980Z,7.05
2022-09-17T09:46:08.785Z,6.28
2022-09-17T09:48:45.553Z,7.05
2022-09-17T09:51:27.161Z,4.32
2022-09-17T09:54:09.856Z,7.80
2022-09-17T09:56:53.127Z,2.47
2022-09-17T09:59:21.327Z,4.45
2022-09-17T10:01:49.428Z,2.63
2022-09-17T10:04:21.764Z,8.02
2022-09-17T10:06:52.456Z,4.07
2022-09-17T10:09:23.774Z,6.97
2022-09-17T10:12:02.402Z,5.55
2022-09-17T10:14:32.768Z,5.15
2022-09-17T10:17:29.195Z,6.90
2022-09-17T10:20:24.495Z,5.18
2022-09-17T10:22:52.392Z,2.70
2022-09-17T10:25:29.987Z,3.30
2022-09-17T10:28:00.591Z,5.88
2022-09-17T10:30:28.570Z,5.05
2022-09-17T10:33:13.851Z,6.05
2022-09-17T10:35:41.564Z,5.00
2022-09-17T10:38:29.186Z,4.93
2022-09-17T10:41:11.528Z,3.53
2022-09-17T10:43:39.510Z,5.25
2022-09-17T10:46:11.530Z,4.07
2022-09-17T10:48:43.104Z,4.75
2022-09-17T10:51:12.222Z,4.35
2022-09-17T10:54:07.324Z,5.25
2022-09-17T10:56:38.730Z,5.30
2022-09-17T10:59:24.564Z,6.00
2022-09-17T11:04:49.760Z,5.45
2022-09-17T11:07:34.140Z,6.95
2022-09-17T11:10:10.867Z,6.70
2022-09-17T11:12:58.254Z,4.18
2022-09-17T11:15:37.013Z,4.00
2022-09-17T11:18:34.075Z,4.80
2022-09-17T11:21:17.552Z,3.88
2022-09-17T11:24:15.556Z,3.70
2022-09-17T11:26:47.439Z,4.13
2022-09-17T11:29:37.697Z,4.63
2022-09-17T11:32:16.369Z,3.92
2022-09-17T11:34:48.672Z,4.15
2022-09-17T11:37:23.709Z,6.07
2022-09-17T11:39:57.674Z,4.93
2022-09-17T11:42:30.609Z,4.18
2022-09-17T11:45:03.801Z,3.58
2022-09-17T11:47:35.780Z,7.40
2022-09-17T11:50:12.298Z,4.70
2022-09-17T11:52:46.954Z,3.53
2022-09-17T11:55:21.937Z,5.10
2022-09-17T11:57:56.284Z,8.10
2022-09-17T12:00:25.542Z,7.35
2022-09-17T12:02:58.892Z,3.75
2022-09-17T12:05:30.295Z,10.23
2022-09-17T12:08:10.227Z,6.82
2022-09-17T12:10:46.967Z,7.28
2022-09-17T12:13:23.287Z,6.37
2022-09-17T12:15:57.310Z,7.07
2022-09-17T12:18:39.928Z,6.85
2022-09-17T12:21:10.751Z,10.27
2022-09-17T12:23:44.250Z,4.65
2022-09-17T12:26:25.983Z,9.43
2022-09-17T12:29:02.102Z,8.20
2022-09-17T12:31:37.543Z,11.32
2022-09-17T12:36:51.274Z,6.93
2022-09-17T12:40:03.434Z,9.30
2022-09-17T12:42:52.633Z,9.30
2022-09-17T12:45:36.123Z,17.15
2022-09-17T12:48:43.535Z,11.88
2022-09-17T12:51:21.111Z,11.52
2022-09-17T12:54:01.446Z,11.18
2022-09-17T12:56:44.162Z,10.98
2022-09-17T12:59:15.839Z,7.38
2022-09-17T13:01:53.515Z,12.38
2022-09-17T13:05:07.289Z,10.50
2022-09-17T13:08:06.933Z,11.68
2022-09-17T13:11:08.133Z,7.97
2022-09-17T13:13:43.231Z,12.38
2022-09-17T13:16:20.074Z,11.05
2022-09-17T13:19:16.484Z,7.55
2022-09-17T13:21:54.463Z,8.63
2022-09-17T13:24:25.624Z,8.10
2022-09-17T13:26:55.019Z,16.08
2022-09-17T13:29:59.514Z,11.10
2022-09-17T13:32:47.109Z,8.32
2022-09-17T13:35:49.314Z,9.75
2022-09-17T13:38:23.693Z,10.32
2022-09-17T13:40:52.524Z,8.27
2022-09-17T13:43:26.928Z,6.32
2022-09-17T13:46:14.576Z,6.93
2022-09-17T13:48:50.286Z,11.40
2022-09-17T13:51:53.539Z,13.32
2022-09-17T13:54:25.698Z,10.85
2022-09-17T13:57:09.759Z,10.80
2022-09-17T13:59:38.993Z,12.05
2022-09-17T14:02:36.589Z,9.63
2022-09-17T14:05:30.803Z,8.30
2022-09-17T14:08:30.837Z,6.75
2022-09-17T14:11:03.060Z,8.90
2022-09-17T14:13:45.042Z,10.23
2022-09-17T14:16:47.364Z,5.60
2022-09-17T14:19:51.007Z,7.55
2022-09-17T14:22:26.046Z,8.65
2022-09-17T14:24:55.846Z,6.85
2022-09-17T14:27:47.736Z,7.32
2022-09-17T14:30:19.909Z,6.00
2022-09-17T14:33:00.107Z,5.60
2022-09-17T14:35:33.203Z,11.20
2022-09-17T14:38:04.085Z,5.28
2022-09-17T14:40:35.740Z,5.30
2022-09-17T14:43:05.153Z,7.03
2022-09-17T14:45:34.734Z,7.55
2022-09-17T14:48:37.492Z,4.82
2022-09-17T14:51:30.676Z,6.22
2022-09-17T14:54:19.835Z,6.28
2022-09-17T14:56:56.466Z,3.50
2022-09-17T14:59:31.496Z,3.78
2022-09-17T15:04:48.153Z,5.78
2022-09-17T15:07:16.524Z,5.20
2022-09-17T15:09:44.270Z,5.95
2022-09-17T15:12:18.794Z,4.75
2022-09-17T15:14:49.515Z,4.40
2022-09-17T15:17:20.547Z,5.30
2022-09-17T15:19:51.500Z,4.78
2022-09-17T15:22:24.047Z,8.55
2022-09-17T15:24:56.973Z,6.00
2022-09-17T15:27:30.518Z,6.68
2022-09-17T15:30:04.197Z,6.63
2022-09-17T15:32:33.950Z,7.28
2022-09-17T15:35:19.672Z,4.10
2022-09-17T15:38:18.509Z,6.75
2022-09-17T15:40:41.366Z,7.45
2022-09-17T15:43:18.525Z,8.40
2022-09-17T15:45:48.330Z,6.22
2022-09-17T15:48:26.021Z,7.38
2022-09-17T15:50:56.442Z,5.88
2022-09-17T15:53:27.095Z,7.53
2022-09-17T15:56:07.733Z,6.28
2022-09-17T15:58:52.595Z,12.07
2022-09-17T16:01:56.760Z,9.90
2022-09-17T16:04:32.066Z,13.30
2022-09-17T16:07:30.358Z,5.00
2022-09-17T16:09:59.981Z,7.43
2022-09-17T16:12:30.371Z,12.13
2022-09-17T16:15:00.822Z,6.95
2022-09-17T16:17:36.229Z,4.25
2022-09-17T16:22:39.185Z,4.07
2022-09-17T16:25:07.806Z,15.35
2022-09-17T16:27:50.866Z,6.47
2022-09-17T16:30:21.665Z,7.30
2022-09-17T16:32:50.149Z,7.50
2022-09-17T16:35:21.281Z,7.80
2022-09-17T16:37:50.692Z,11.82
2022-09-17T16:40:19.036Z,24.23
2022-09-17T16:42:48.354Z,25.27
2022-09-17T16:45:17.253Z,57.20
2022-09-17T16:47:45.083Z,27.15
2022-09-17T16:50:16.480Z,8.05
2022-09-17T16:52:46.811Z,17.27
2022-09-17T16:55:17.375Z,9.57
2022-09-17T16:57:45.226Z,3.22
2022-09-17T17:00:16.975Z,5.40
2022-09-17T17:02:45.400Z,4.03
2022-09-17T17:05:13.200Z,4.75
2022-09-17T17:07:41.353Z,10.70
2022-09-17T17:10:11.934Z,8.38
2022-09-17T17:12:39.673Z,4.57
2022-09-17T17:15:09.615Z,9.35
2022-09-17T17:17:37.906Z,31.05
2022-09-17T17:20:08.395Z,39.25
2022-09-17T17:22:37.502Z,34.53
2022-09-17T17:25:06.114Z,25.48
2022-09-17T17:27:36.317Z,23.48
2022-09-17T17:30:09.255Z,38.28
2022-09-17T17:32:38.613Z,17.98
2022-09-17T17:35:07.829Z,13.38
2022-09-17T17:37:35.572Z,8.23
2022-09-17T17:40:08.365Z,11.85
2022-09-17T17:42:39.955Z,5.80
2022-09-17T17:45:09.208Z,12.25
2022-09-17T17:47:37.963Z,7.18
2022-09-17T17:50:06.641Z,6.60
2022-09-17T17:52:34.988Z,9.68
2022-09-17T17:55:02.850Z,6.72
2022-09-17T17:57:30.760Z,7.28
2022-09-17T18:00:00.749Z,7.53
2022-09-17T18:02:29.180Z,8.27
2022-09-17T18:05:00.782Z,14.93
2022-09-17T18:07:32.086Z,7.60
2022-09-17T18:10:00.996Z,7.57
2022-09-17T18:12:29.344Z,9.00
2022-09-17T18:14:58.862Z,9.07
2022-09-17T18:17:32.041Z,5.38
2022-09-17T18:20:00.042Z,8.88
2022-09-17T18:22:28.426Z,11.30
2022-09-17T18:24:56.199Z,7.78
2022-09-17T18:27:24.370Z,8.02
2022-09-17T18:29:52.117Z,7.90
2022-09-17T18:32:19.861Z,12.32
2022-09-17T18:34:51.165Z,11.25
2022-09-17T18:37:19.863Z,9.52
2022-09-17T18:40:04.909Z,10.50
2022-09-17T18:42:33.529Z,16.40
2022-09-17T18:45:01.757Z,16.25
2022-09-17T18:47:29.856Z,9.82
2022-09-17T18:49:59.765Z,13.20
2022-09-17T18:52:28.290Z,8.13
2022-09-17T18:54:56.437Z,7.97
2022-09-17T18:57:24.162Z,9.27
2022-09-17T18:59:52.569Z,10.45
2022-09-17T19:02:20.960Z,10.75
2022-09-17T19:04:48.993Z,6.80
2022-09-17T19:07:18.592Z,10.40
2022-09-17T19:09:47.956Z,13.82
2022-09-17T19:12:15.772Z,9.45
2022-09-17T19:14:44.170Z,11.27
2022-09-17T19:17:12.326Z,7.43
2022-09-17T19:19:40.103Z,13.05
2022-09-17T19:22:08.360Z,13.02
2022-09-17T19:24:38.828Z,9.93
2022-09-17T19:27:07.586Z,9.65
2022-09-17T19:29:35.844Z,8.68
2022-09-17T19:32:04.044Z,8.13
2022-09-17T19:34:31.924Z,9.20
2022-09-17T19:36:59.800Z,8.95
2022-09-17T19:39:28.101Z,10.32
2022-09-17T19:41:57.216Z,12.65
2022-09-17T19:44:25.205Z,7.38
2022-09-17T19:46:53.716Z,10.90
2022-09-17T19:49:21.553Z,9.43
2022-09-17T19:51:49.759Z,11.05
2022-09-17T19:54:17.481Z,13.10
2022-09-17T19:56:45.416Z,11.98
2022-09-17T19:59:15.235Z,12.20
2022-09-17T20:01:49.244Z,9.50
2022-09-17T20:04:20.429Z,8.07
2022-09-17T20:06:48.144Z,10.55
2022-09-17T20:09:15.909Z,8.68
2022-09-17T20:11:44.034Z,6.32
2022-09-17T20:14:12.709Z,14.43
2022-09-17T20:16:43.907Z,6.00
2022-09-17T20:19:15.370Z,7.82
2022-09-17T20:21:43.191Z,4.93
2022-09-17T20:24:11.480Z,6.65
2022-09-17T20:26:39.246Z,13.50
2022-09-17T20:29:07.025Z,7.90
2022-09-17T20:31:35.033Z,7.60
2022-09-17T20:36:36.093Z,7.78
2022-09-17T20:39:18.188Z,9.27
2022-09-17T20:41:47.831Z,10.27
2022-09-17T20:44:15.652Z,8.25
2022-09-17T20:46:43.463Z,12.20
2022-09-17T20:49:12.910Z,6.43
2022-09-17T20:51:40.638Z,9.05
2022-09-17T20:54:08.658Z,11.40
2022-09-17T20:56:37.372Z,6.72
2022-09-17T20:59:15.097Z,7.57
2022-09-17T21:01:45.020Z,9.13
2022-09-17T21:04:16.807Z,8.52
2022-09-17T21:06:45.533Z,9.68
2022-09-17T21:09:16.747Z,9.05
2022-09-17T21:11:45.204Z,10.85
2022-09-17T21:14:15.255Z,6.85
2022-09-17T21:16:43.074Z,9.80
2022-09-17T21:19:16.544Z,8.68
2022-09-17T21:21:44.842Z,7.45
2022-09-17T21:24:12.860Z,5.13
2022-09-17T21:26:40.995Z,7.43
2022-09-17T21:29:08.921Z,12.50
2022-09-17T21:31:38.168Z,12.43
2022-09-17T21:34:08.345Z,9.88
2022-09-17T21:36:39.336Z,9.98
2022-09-17T21:39:10.902Z,10.00
2022-09-17T21:41:42.547Z,10.93
2022-09-17T21:44:11.252Z,8.88
2022-09-17T21:46:41.084Z,11.65
2022-09-17T21:49:09.320Z,14.20
2022-09-17T21:51:39.891Z,8.07
2022-09-17T21:54:10.016Z,14.70
2022-09-17T21:56:38.576Z,7.22
2022-09-17T21:59:08.691Z,4.85
2022-09-17T22:01:40.280Z,7.95
2022-09-17T22:04:09.402Z,7.13
2022-09-17T22:06:39.079Z,9.10
2022-09-17T22:09:08.985Z,4.40
2022-09-17T22:11:38.368Z,8.98
2022-09-17T22:14:09.484Z,6.18
2022-09-17T22:16:40.025Z,4.88
2022-09-17T22:19:09.247Z,6.78
2022-09-17T22:21:40.766Z,6.65
2022-09-17T22:24:09.169Z,5.13
2022-09-17T22:26:40.164Z,4.45
2022-09-17T22:29:09.447Z,7.68
2022-09-17T22:31:37.491Z,5.32
2022-09-17T22:34:09.102Z,8.20
2022-09-17T22:36:38.684Z,5.22
2022-09-17T22:39:07.087Z,3.58
2022-09-17T22:41:37.172Z,3.30
2022-09-17T22:44:06.307Z,7.47
2022-09-17T22:46:35.980Z,4.28
2022-09-17T22:49:04.047Z,5.03
2022-09-17T22:51:33.193Z,4.78
2022-09-17T22:54:02.906Z,5.78
2022-09-17T22:56:31.608Z,9.00
2022-09-17T22:59:00.260Z,6.20
2022-09-17T23:01:30.002Z,9.98
2022-09-17T23:03:59.602Z,6.78
2022-09-17T23:06:29.552Z,4.55
2022-09-17T23:08:57.901Z,7.72
2022-09-17T23:11:28.840Z,6.10
2022-09-17T23:13:58.836Z,6.28
2022-09-17T23:16:27.113Z,5.75
2022-09-17T23:18:55.292Z,8.68
2022-09-17T23:21:23.294Z,10.23
2022-09-17T23:23:53.459Z,6.53
2022-09-17T23:26:24.815Z,8.57
2022-09-17T23:28:54.540Z,4.45
2022-09-17T23:31:24.482Z,6.30
2022-09-17T23:33:53.340Z,7.10
2022-09-17T23:36:22.778Z,6.43
2022-09-17T23:38:52.125Z,16.45
2022-09-17T23:41:22.155Z,6.40
2022-09-17T23:43:52.526Z,6.05
2022-09-17T23:46:23.788Z,9.00
2022-09-17T23:48:53.769Z,12.07
2022-09-17T23:51:22.341Z,8.80
2022-09-17T23:53:50.400Z,7.43
2022-09-17T23:56:21.681Z,7.97
2022-09-17T23:58:50.499Z,9.23
